Time;durP1;ratioP1;P1;durP2;ratioP2;P2;SDS_P1;SDS_P2;PMS_P1;PMS_P2;Temp;Humidity;BMP_temperature;BMP_pressure;BME280_temperature;BME280_humidity;BME280_pressure;Samples;Min_cycle;Max_cycle;Signal;HPM_P1;HPM_P2
2023/05/15 00:01:36;;;;;;;3.40;3.10;;;16.00;1.00;;;;;;5031708;28;20523;-63
2023/05/15 00:04:02;;;;;;;3.35;3.05;;;16.00;1.00;;;;;;5047391;28;20135;-63
2023/05/15 00:06:27;;;;;;;3.22;2.92;;;16.00;1.00;;;;;;5046245;28;20017;-62
2023/05/15 00:08:53;;;;;;;3.03;2.83;;;15.90;1.00;;;;;;5032662;28;20044;-62
2023/05/15 00:11:20;;;;;;;4.28;2.80;;;16.00;1.00;;;;;;5036404;28;20157;-63
2023/05/15 00:13:45;;;;;;;4.45;2.95;;;16.00;1.00;;;;;;5030351;28;20445;-62
2023/05/15 00:16:11;;;;;;;3.05;2.72;;;15.90;1.00;;;;;;5029712;28;20037;-62
2023/05/15 00:18:37;;;;;;;3.13;2.90;;;15.90;1.00;;;;;;5034267;28;20498;-62
2023/05/15 00:21:02;;;;;;;3.83;2.55;;;15.80;1.00;;;;;;5031372;28;20386;-62
2023/05/15 00:23:28;;;;;;;3.22;2.63;;;15.80;1.00;;;;;;5039112;28;20467;-62
2023/05/15 00:25:54;;;;;;;4.80;2.70;;;15.70;1.00;;;;;;5043559;28;20486;-63
2023/05/15 00:28:20;;;;;;;3.80;2.50;;;15.70;1.00;;;;;;5033642;28;20026;-62
2023/05/15 00:30:45;;;;;;;2.83;2.63;;;15.70;1.00;;;;;;5037071;28;20045;-62
2023/05/15 00:33:11;;;;;;;2.42;2.28;;;15.70;1.00;;;;;;5034457;28;20390;-63
2023/05/15 00:35:37;;;;;;;2.42;2.22;;;15.70;1.00;;;;;;5034587;28;20448;-63
2023/05/15 00:38:02;;;;;;;2.40;2.20;;;15.70;1.00;;;;;;5036184;28;20476;-63
2023/05/15 00:40:29;;;;;;;2.40;2.20;;;15.70;1.00;;;;;;5033039;28;20036;-63
2023/05/15 00:42:56;;;;;;;2.30;2.10;;;15.60;1.00;;;;;;5033361;28;20111;-63
2023/05/15 00:45:23;;;;;;;2.08;1.88;;;15.60;1.00;;;;;;5035660;28;20060;-64
2023/05/15 00:47:49;;;;;;;2.95;2.25;;;15.60;1.00;;;;;;5033478;28;20426;-64
2023/05/15 00:50:15;;;;;;;1.90;1.80;;;15.60;1.00;;;;;;5032670;28;20041;-63
2023/05/15 00:52:42;;;;;;;2.17;1.88;;;15.60;1.00;;;;;;5033960;28;20029;-63
2023/05/15 00:55:08;;;;;;;2.97;1.85;;;15.50;1.00;;;;;;5035212;28;20037;-63
2023/05/15 00:57:34;;;;;;;2.65;2.20;;;15.60;1.00;;;;;;5039027;28;20036;-63
2023/05/15 01:00:01;;;;;;;1.98;1.88;;;15.60;1.00;;;;;;5038268;28;20049;-63
2023/05/15 01:02:27;;;;;;;2.28;2.08;;;15.50;1.00;;;;;;5033386;28;20485;-63
2023/05/15 01:04:53;;;;;;;2.15;1.70;;;15.50;1.00;;;;;;5033490;28;20120;-63
2023/05/15 01:07:19;;;;;;;2.97;2.03;;;15.50;1.00;;;;;;5023017;28;20033;-63
2023/05/15 01:09:46;;;;;;;1.92;1.75;;;15.50;1.00;;;;;;5045927;28;20120;-63
2023/05/15 01:12:14;;;;;;;2.25;2.03;;;15.50;1.00;;;;;;5045329;28;20497;-63
2023/05/15 01:14:41;;;;;;;2.35;2.10;;;15.40;1.00;;;;;;5042216;28;20025;-63
2023/05/15 01:17:06;;;;;;;2.83;1.85;;;15.40;1.00;;;;;;5029765;28;20025;-63
2023/05/15 01:19:32;;;;;;;2.75;1.95;;;15.40;1.00;;;;;;5039420;28;20407;-63
2023/05/15 01:22:21;;;;;;;2.42;1.77;;;15.40;1.00;;;;;;5030875;28;20109;-63
2023/05/15 01:25:25;;;;;;;3.13;1.75;;;15.40;1.00;;;;;;5028585;28;20025;-62
2023/05/15 01:27:55;;;;;;;2.88;2.47;;;15.40;1.00;;;;;;5030285;28;20037;-63
2023/05/15 01:30:34;;;;;;;2.90;1.88;;;15.40;1.00;;;;;;5021544;28;20042;-63
2023/05/15 01:33:25;;;;;;;2.20;1.52;;;15.40;1.00;;;;;;5032150;28;20056;-63
2023/05/15 01:36:17;;;;;;;1.55;1.45;;;15.30;1.00;;;;;;5034328;28;20510;-63
2023/05/15 01:38:49;;;;;;;2.15;1.40;;;15.30;1.00;;;;;;5024336;28;20549;-63
2023/05/15 01:41:49;;;;;;;1.98;1.13;;;15.30;1.00;;;;;;5036726;28;20471;-63
2023/05/15 01:44:21;;;;;;;1.40;1.30;;;15.30;1.00;;;;;;5025358;28;20507;-63
2023/05/15 01:46:53;;;;;;;1.50;1.30;;;15.30;1.00;;;;;;5031571;28;20494;-63
2023/05/15 01:49:21;;;;;;;1.77;1.15;;;15.30;1.00;;;;;;5027392;28;20060;-63
2023/05/15 01:51:53;;;;;;;2.50;1.38;;;15.30;1.00;;;;;;5028904;28;20598;-63
2023/05/15 01:54:19;;;;;;;1.38;1.27;;;15.30;1.00;;;;;;5025925;28;20100;-63
2023/05/15 01:56:45;;;;;;;1.67;1.58;;;15.30;1.00;;;;;;5032442;28;20026;-63
2023/05/15 01:59:15;;;;;;;2.08;1.88;;;15.30;1.00;;;;;;5033108;28;20029;-63
2023/05/15 02:01:42;;;;;;;3.35;1.60;;;15.30;1.00;;;;;;5031159;28;20033;-63
2023/05/15 02:04:08;;;;;;;3.53;1.80;;;15.20;1.00;;;;;;5033412;28;20025;-63
2023/05/15 02:06:35;;;;;;;1.98;1.88;;;15.20;1.00;;;;;;5030277;28;20029;-63
2023/05/15 02:09:02;;;;;;;1.77;1.50;;;15.10;1.00;;;;;;5032411;28;20533;-63
2023/05/15 02:11:27;;;;;;;1.98;1.77;;;15.20;1.00;;;;;;5035106;28;20025;-63
2023/05/15 02:13:55;;;;;;;2.60;2.40;;;15.20;1.00;;;;;;5038264;28;20025;-64
2023/05/15 02:16:21;;;;;;;3.08;1.80;;;15.10;1.00;;;;;;5032604;28;20029;-64
2023/05/15 02:18:47;;;;;;;2.40;2.03;;;15.10;1.00;;;;;;5038072;28;20383;-63
2023/05/15 02:22:05;;;;;;;2.60;1.63;;;15.10;1.00;;;;;;5041282;28;20040;-64
2023/05/15 02:24:31;;;;;;;;;;;15.10;1.00;;;;;;5027947;28;20472;-63
2023/05/15 02:27:21;;;;;;;3.45;1.77;;;15.10;1.00;;;;;;5039416;28;19916;-63
2023/05/15 02:30:13;;;;;;;2.53;1.83;;;15.10;1.00;;;;;;5034460;28;20064;-62
2023/05/15 02:32:52;;;;;;;2.08;1.70;;;15.10;1.00;;;;;;5042657;28;20044;-67
2023/05/15 02:35:28;;;;;;;2.05;1.70;;;15.10;1.00;;;;;;5054133;28;20067;-64
2023/05/15 02:37:59;;;;;;;3.33;2.03;;;15.10;1.00;;;;;;5047224;28;20075;-63
2023/05/15 02:40:26;;;;;;;2.30;1.55;;;15.10;1.00;;;;;;5045956;28;20480;-63
2023/05/15 02:42:53;;;;;;;2.42;2.13;;;15.10;1.00;;;;;;5037151;28;20041;-64
2023/05/15 02:45:19;;;;;;;2.17;1.98;;;15.10;1.00;;;;;;5054470;28;20024;-64
2023/05/15 02:47:47;;;;;;;2.28;2.08;;;15.10;1.00;;;;;;5046732;28;20032;-63
2023/05/15 02:50:13;;;;;;;2.45;1.75;;;15.10;1.00;;;;;;5045494;28;20081;-64
2023/05/15 02:52:39;;;;;;;2.17;1.98;;;15.10;1.00;;;;;;5054214;28;20033;-64
2023/05/15 02:55:05;;;;;;;3.50;1.73;;;15.10;1.00;;;;;;5043187;28;20039;-63
2023/05/15 02:57:31;;;;;;;1.77;1.67;;;15.10;1.00;;;;;;5034634;28;20018;-64
2023/05/15 02:59:56;;;;;;;1.80;1.70;;;15.10;1.00;;;;;;5034545;28;20045;-64
2023/05/15 03:02:22;;;;;;;2.42;2.20;;;15.10;1.00;;;;;;5033816;28;20029;-64
2023/05/15 03:04:48;;;;;;;2.13;1.92;;;15.10;1.00;;;;;;5034849;28;20028;-64
2023/05/15 03:07:13;;;;;;;2.88;1.80;;;15.10;1.00;;;;;;5035433;28;20026;-64
2023/05/15 03:09:40;;;;;;;2.50;1.90;;;15.10;1.00;;;;;;5035993;28;20079;-63
2023/05/15 03:12:06;;;;;;;3.60;2.33;;;15.10;1.00;;;;;;5034037;28;20419;-63
2023/05/15 03:14:32;;;;;;;2.63;2.42;;;15.10;1.00;;;;;;5034631;28;20064;-63
2023/05/15 03:16:58;;;;;;;3.25;2.45;;;15.10;1.00;;;;;;5036052;28;20068;-63
2023/05/15 03:19:24;;;;;;;2.88;2.40;;;15.00;1.00;;;;;;5039418;28;20026;-63
2023/05/15 03:21:50;;;;;;;2.15;1.95;;;15.00;1.00;;;;;;5037565;28;20076;-63
2023/05/15 03:24:15;;;;;;;3.17;2.30;;;15.00;1.00;;;;;;5041318;28;20029;-63
2023/05/15 03:26:42;;;;;;;4.40;2.00;;;15.00;1.00;;;;;;5033780;28;20437;-63
2023/05/15 03:29:08;;;;;;;4.00;2.33;;;15.00;1.00;;;;;;5024082;28;20045;-64
2023/05/15 03:31:34;;;;;;;2.13;1.92;;;15.00;1.00;;;;;;5035354;28;20377;-64
2023/05/15 03:33:59;;;;;;;2.35;2.15;;;15.00;1.00;;;;;;5036437;28;20021;-64
2023/05/15 03:36:25;;;;;;;2.13;1.95;;;15.00;1.00;;;;;;5038745;28;21984;-63
2023/05/15 03:38:51;;;;;;;2.58;2.22;;;15.00;1.00;;;;;;5041996;28;20120;-64
2023/05/15 03:41:16;;;;;;;3.17;2.22;;;14.90;1.00;;;;;;5036388;28;20487;-64
2023/05/15 03:43:42;;;;;;;2.83;2.28;;;14.90;1.00;;;;;;5036243;28;20045;-63
2023/05/15 03:46:07;;;;;;;2.65;2.10;;;14.90;1.00;;;;;;5032515;28;20017;-63
2023/05/15 03:48:33;;;;;;;2.17;1.98;;;14.90;1.00;;;;;;5034947;28;20041;-63
2023/05/15 03:50:59;;;;;;;2.88;2.30;;;14.90;1.00;;;;;;5032666;28;20553;-63
2023/05/15 03:53:25;;;;;;;2.58;2.38;;;14.90;1.00;;;;;;5033875;28;20013;-63
2023/05/15 03:55:50;;;;;;;2.67;2.30;;;14.90;1.00;;;;;;5033529;28;20041;-63
2023/05/15 03:58:16;;;;;;;2.38;2.10;;;14.90;1.00;;;;;;5033533;28;20056;-63
2023/05/15 04:00:42;;;;;;;3.33;2.40;;;14.80;1.00;;;;;;5037680;28;20091;-63
2023/05/15 04:03:08;;;;;;;3.25;2.95;;;14.90;1.00;;;;;;5035602;28;20051;-62
2023/05/15 04:05:34;;;;;;;2.47;2.20;;;14.80;1.00;;;;;;5034332;28;20030;-61
2023/05/15 04:07:59;;;;;;;2.80;2.40;;;14.70;1.00;;;;;;5038911;28;20457;-60
2023/05/15 04:10:25;;;;;;;3.67;2.40;;;14.70;1.00;;;;;;5037880;28;20035;-63
2023/05/15 04:12:51;;;;;;;2.85;2.60;;;14.70;1.00;;;;;;5035360;28;20467;-63
2023/05/15 04:15:17;;;;;;;4.63;3.17;;;14.70;1.00;;;;;;5032925;28;20471;-64
2023/05/15 04:17:48;;;;;;;3.40;3.10;;;14.70;1.00;;;;;;5037577;28;20021;-64
2023/05/15 04:20:16;;;;;;;5.28;3.80;;;14.70;1.00;;;;;;5039378;28;20460;-63
2023/05/15 04:22:43;;;;;;;3.85;2.95;;;14.70;1.00;;;;;;5033379;28;20030;-64
2023/05/15 04:25:10;;;;;;;4.15;3.20;;;14.70;1.00;;;;;;5031845;28;20037;-65
2023/05/15 04:27:36;;;;;;;4.30;3.40;;;14.70;1.00;;;;;;5035707;28;20021;-64
2023/05/15 04:30:04;;;;;;;4.40;4.00;;;14.60;1.00;;;;;;5034716;28;20045;-64
2023/05/15 04:32:30;;;;;;;6.20;4.97;;;14.70;1.00;;;;;;5037344;28;20029;-64
2023/05/15 04:34:56;;;;;;;4.43;3.95;;;14.70;1.00;;;;;;5036311;28;20483;-64
2023/05/15 04:37:21;;;;;;;4.95;4.45;;;14.70;1.00;;;;;;5037899;28;20037;-64
2023/05/15 04:39:47;;;;;;;4.47;4.07;;;14.70;1.00;;;;;;5034382;28;20032;-64
2023/05/15 04:42:12;;;;;;;4.63;4.22;;;14.70;1.00;;;;;;5038038;28;20045;-65
2023/05/15 04:44:38;;;;;;;5.03;4.53;;;14.70;1.00;;;;;;5035677;28;20029;-64
2023/05/15 04:47:04;;;;;;;4.43;3.53;;;14.70;1.00;;;;;;5040324;28;20071;-64
2023/05/15 04:49:29;;;;;;;4.60;4.10;;;14.70;1.00;;;;;;5035528;28;20496;-64
2023/05/15 04:51:55;;;;;;;5.97;4.15;;;14.70;1.00;;;;;;5033287;28;20123;-65
2023/05/15 04:54:21;;;;;;;6.00;3.63;;;14.70;1.00;;;;;;5033445;28;20032;-65
2023/05/15 04:56:46;;;;;;;5.65;4.13;;;14.70;1.00;;;;;;5035849;28;20029;-65
2023/05/15 04:59:12;;;;;;;5.43;3.58;;;14.70;1.00;;;;;;5033110;28;20029;-65
2023/05/15 05:01:38;;;;;;;5.72;4.10;;;14.70;1.00;;;;;;5032427;28;20030;-65
2023/05/15 05:04:04;;;;;;;5.18;4.32;;;14.80;1.00;;;;;;5047195;28;20082;-65
2023/05/15 05:06:30;;;;;;;6.68;3.95;;;14.80;1.00;;;;;;5034052;28;20021;-65
2023/05/15 05:08:55;;;;;;;6.07;4.40;;;14.80;1.00;;;;;;5039018;28;20137;-65
2023/05/15 05:11:21;;;;;;;5.60;4.88;;;14.80;1.00;;;;;;5030507;28;20034;-65
2023/05/15 05:13:47;;;;;;;4.75;4.35;;;14.80;1.00;;;;;;5029653;28;20072;-65
2023/05/15 05:16:13;;;;;;;6.22;4.72;;;14.80;1.00;;;;;;5036148;28;20076;-66
2023/05/15 05:18:39;;;;;;;5.32;4.78;;;14.80;1.00;;;;;;5035448;28;20037;-66
2023/05/15 05:21:05;;;;;;;5.78;5.18;;;14.80;1.00;;;;;;5033047;28;20514;-66
2023/05/15 05:23:30;;;;;;;7.05;5.43;;;14.80;1.00;;;;;;5037664;28;20029;-66
2023/05/15 05:25:58;;;;;;;7.43;5.50;;;14.80;1.00;;;;;;5034943;28;20475;-66
2023/05/15 05:28:24;;;;;;;7.07;5.25;;;14.80;1.00;;;;;;5039743;28;20077;-66
2023/05/15 05:30:50;;;;;;;5.65;5.07;;;14.80;1.00;;;;;;5035852;28;20091;-66
2023/05/15 05:33:16;;;;;;;7.78;5.88;;;14.80;1.00;;;;;;5029727;28;20488;-65
2023/05/15 05:35:42;;;;;;;7.10;5.75;;;14.80;1.00;;;;;;5036611;28;20029;-66
2023/05/15 05:38:07;;;;;;;7.25;5.78;;;14.80;1.00;;;;;;5040163;28;20105;-66
2023/05/15 05:40:33;;;;;;;6.22;5.63;;;14.80;1.00;;;;;;5035230;28;20442;-66
2023/05/15 05:43:02;;;;;;;6.90;6.20;;;14.90;1.00;;;;;;5039835;28;20456;-66
2023/05/15 05:45:28;;;;;;;6.90;5.90;;;14.90;1.00;;;;;;5031379;28;20247;-67
2023/05/15 05:47:57;;;;;;;8.32;6.00;;;14.80;1.00;;;;;;5043586;28;20037;-66
2023/05/15 05:50:23;;;;;;;7.40;6.15;;;14.90;1.00;;;;;;5032645;28;20154;-66
2023/05/15 05:52:49;;;;;;;7.38;6.68;;;14.90;1.00;;;;;;5032573;28;20079;-66
2023/05/15 05:55:15;;;;;;;8.90;6.40;;;14.90;1.00;;;;;;5037377;28;20029;-66
2023/05/15 05:57:41;;;;;;;9.65;7.68;;;14.90;1.00;;;;;;5031872;28;20501;-66
2023/05/15 06:00:10;;;;;;;13.57;10.82;;;14.90;1.00;;;;;;5031448;28;20029;-66
2023/05/15 06:02:37;;;;;;;12.38;11.18;;;14.90;1.00;;;;;;5045391;28;20025;-66
2023/05/15 06:05:03;;;;;;;11.43;10.23;;;14.90;1.00;;;;;;5051803;28;20017;-66
2023/05/15 06:07:29;;;;;;;15.18;10.35;;;15.00;1.00;;;;;;5034834;28;20021;-66
2023/05/15 06:09:55;;;;;;;13.68;9.80;;;15.00;1.00;;;;;;5032528;28;20107;-65
2023/05/15 06:12:21;;;;;;;10.10;9.02;;;15.00;1.00;;;;;;5029608;28;20043;-66
2023/05/15 06:14:46;;;;;;;9.15;7.07;;;15.10;1.00;;;;;;5032003;28;20405;-66
2023/05/15 06:17:12;;;;;;;7.07;6.38;;;15.00;1.00;;;;;;5033571;28;20030;-66
2023/05/15 06:19:38;;;;;;;6.18;5.57;;;15.10;1.00;;;;;;5036563;28;20037;-66
2023/05/15 06:22:04;;;;;;;6.63;5.85;;;15.10;1.00;;;;;;5032406;28;20391;-66
2023/05/15 06:24:29;;;;;;;7.47;5.00;;;15.10;1.00;;;;;;5036639;28;20078;-66
2023/05/15 06:26:55;;;;;;;7.35;5.20;;;15.10;1.00;;;;;;5038833;28;20026;-66
2023/05/15 06:29:21;;;;;;;6.80;5.25;;;15.10;1.00;;;;;;5035113;28;20029;-66
2023/05/15 06:31:47;;;;;;;7.68;5.97;;;15.10;1.00;;;;;;5035733;28;20155;-66
2023/05/15 06:34:12;;;;;;;7.40;6.38;;;15.10;1.00;;;;;;5037347;28;20032;-66
2023/05/15 06:36:38;;;;;;;10.38;6.65;;;15.10;1.00;;;;;;5030223;28;20071;-66
2023/05/15 06:39:04;;;;;;;6.80;5.50;;;15.20;1.00;;;;;;5032058;28;20030;-66
2023/05/15 06:41:30;;;;;;;5.43;4.93;;;15.20;1.00;;;;;;5030968;28;20033;-66
2023/05/15 06:43:56;;;;;;;5.03;4.43;;;15.20;1.00;;;;;;5035003;28;20052;-66
2023/05/15 06:46:22;;;;;;;4.72;3.65;;;15.30;1.00;;;;;;5031472;28;20025;-66
2023/05/15 06:48:47;;;;;;;4.57;3.25;;;15.30;1.00;;;;;;5036253;28;20038;-68
2023/05/15 06:51:13;;;;;;;4.20;3.72;;;15.30;1.00;;;;;;5038421;28;20390;-66
2023/05/15 06:53:40;;;;;;;4.53;3.42;;;15.30;1.00;;;;;;5044513;28;20032;-67
2023/05/15 06:56:06;;;;;;;3.35;3.08;;;15.30;1.00;;;;;;5036129;28;20053;-66
2023/05/15 06:58:32;;;;;;;3.60;3.30;;;15.30;1.00;;;;;;5031688;28;20471;-66
2023/05/15 07:00:58;;;;;;;5.10;1.90;;;15.40;1.00;;;;;;5030597;28;20030;-67
2023/05/15 07:03:23;;;;;;;4.30;3.00;;;15.30;1.00;;;;;;5037636;28;20025;-66
2023/05/15 07:05:49;;;;;;;4.72;3.88;;;15.40;1.00;;;;;;5030792;28;20375;-67
2023/05/15 07:08:15;;;;;;;4.60;4.15;;;15.40;1.00;;;;;;5034820;28;20021;-66
2023/05/15 07:10:41;;;;;;;6.50;4.40;;;15.40;1.00;;;;;;5046944;28;20124;-64
2023/05/15 07:13:06;;;;;;;5.25;3.53;;;15.50;1.00;;;;;;5035464;28;20045;-66
2023/05/15 07:15:32;;;;;;;4.28;3.88;;;15.50;1.00;;;;;;5039282;28;20037;-68
2023/05/15 07:17:57;;;;;;;5.72;4.50;;;15.50;1.00;;;;;;5023750;28;20450;-64
2023/05/15 07:20:23;;;;;;;6.35;4.95;;;15.60;1.00;;;;;;5045472;28;20155;-63
2023/05/15 07:22:49;;;;;;;5.68;5.18;;;15.60;1.00;;;;;;5037905;28;20060;-64
2023/05/15 07:25:15;;;;;;;5.55;5.00;;;15.70;1.00;;;;;;5036723;28;20030;-65
2023/05/15 07:27:40;;;;;;;5.30;4.65;;;15.70;1.00;;;;;;5042490;28;20079;-62
2023/05/15 07:30:07;;;;;;;6.07;4.57;;;15.70;1.00;;;;;;5040094;28;20041;-67
2023/05/15 07:32:32;;;;;;;5.25;4.72;;;15.70;1.00;;;;;;5036564;28;20040;-67
2023/05/15 07:34:58;;;;;;;5.50;5.07;;;15.80;1.00;;;;;;5037505;28;20022;-67
2023/05/15 07:37:24;;;;;;;6.00;4.95;;;15.80;1.00;;;;;;5035221;28;20075;-68
2023/05/15 07:39:50;;;;;;;5.78;4.55;;;15.80;1.00;;;;;;5040936;28;20025;-64
2023/05/15 07:42:16;;;;;;;6.90;4.90;;;15.90;1.00;;;;;;5040626;28;20049;-64
2023/05/15 07:44:41;;;;;;;6.88;5.38;;;15.90;1.00;;;;;;5035937;28;20096;-64
2023/05/15 07:47:07;;;;;;;5.72;4.88;;;15.90;1.00;;;;;;5033996;28;20049;-67
2023/05/15 07:49:33;;;;;;;5.90;5.30;;;15.90;1.00;;;;;;5036417;28;20131;-65
2023/05/15 07:51:59;;;;;;;6.25;5.35;;;16.00;1.00;;;;;;5037288;28;20475;-66
2023/05/15 07:54:25;;;;;;;7.10;5.90;;;16.00;1.00;;;;;;5033364;28;20033;-58
2023/05/15 07:56:52;;;;;;;6.60;4.70;;;16.10;1.00;;;;;;5035692;28;20032;-59
2023/05/15 07:59:18;;;;;;;4.70;4.15;;;16.10;1.00;;;;;;5034540;28;20068;-63
2023/05/15 08:01:43;;;;;;;5.53;5.03;;;16.20;1.00;;;;;;5032254;28;20034;-60
2023/05/15 08:04:10;;;;;;;5.10;4.57;;;16.30;1.00;;;;;;5037014;28;20021;-67
2023/05/15 08:06:37;;;;;;;4.85;3.70;;;16.40;1.00;;;;;;5039114;28;20033;-67
2023/05/15 08:09:03;;;;;;;9.18;5.07;;;16.50;1.00;;;;;;5034402;28;20500;-69
2023/05/15 08:11:29;;;;;;;6.78;4.90;;;16.50;1.00;;;;;;5036027;28;20057;-66
2023/05/15 08:13:54;;;;;;;5.85;5.35;;;16.50;1.00;;;;;;5032271;28;20073;-65
2023/05/15 08:16:20;;;;;;;5.65;4.90;;;16.50;1.00;;;;;;5037697;28;20735;-66
2023/05/15 08:18:46;;;;;;;6.32;4.43;;;16.50;1.00;;;;;;5035389;28;20028;-67
2023/05/15 08:21:11;;;;;;;5.70;5.15;;;16.50;1.00;;;;;;5032919;28;20041;-66
2023/05/15 08:23:37;;;;;;;5.13;4.55;;;16.60;1.00;;;;;;5035858;28;20026;-67
2023/05/15 08:26:03;;;;;;;5.28;4.45;;;16.70;1.00;;;;;;5036961;28;20156;-69
2023/05/15 08:28:28;;;;;;;5.47;4.35;;;16.70;1.00;;;;;;5043641;28;20506;-68
2023/05/15 08:30:54;;;;;;;5.13;4.63;;;16.70;1.00;;;;;;5036160;28;20718;-61
2023/05/15 08:33:19;;;;;;;6.30;4.93;;;16.80;1.00;;;;;;5043545;28;20515;-61
2023/05/15 08:35:45;;;;;;;5.88;4.80;;;16.80;1.00;;;;;;5051270;28;20029;-63
2023/05/15 08:38:11;;;;;;;4.28;3.72;;;16.80;1.00;;;;;;5040764;28;20499;-62
2023/05/15 08:40:37;;;;;;;5.60;4.13;;;16.80;1.00;;;;;;5033672;28;20045;-67
2023/05/15 08:43:09;;;;;;;4.43;3.92;;;16.90;1.00;;;;;;5024121;28;20053;-64
2023/05/15 08:45:35;;;;;;;4.90;4.50;;;16.90;1.00;;;;;;5033769;28;20387;-62
2023/05/15 08:48:08;;;;;;;6.32;4.68;;;16.90;1.00;;;;;;5051080;28;20029;-64
2023/05/15 08:50:37;;;;;;;5.05;4.55;;;17.00;1.00;;;;;;5031317;28;20045;-61
2023/05/15 08:53:03;;;;;;;8.60;4.50;;;17.00;1.00;;;;;;5031208;28;20079;-61
2023/05/15 08:55:29;;;;;;;5.55;4.45;;;17.00;1.00;;;;;;5036178;28;20026;-64
2023/05/15 08:57:55;;;;;;;5.50;4.90;;;17.10;1.00;;;;;;5032533;28;20040;-60
2023/05/15 09:00:21;;;;;;;7.15;5.00;;;17.10;1.00;;;;;;5030022;28;20067;-61
2023/05/15 09:02:47;;;;;;;6.47;4.70;;;17.20;1.00;;;;;;5031992;28;20091;-61
2023/05/15 09:05:12;;;;;;;6.32;3.92;;;17.20;1.00;;;;;;5033673;28;20026;-64
2023/05/15 09:07:43;;;;;;;7.05;5.25;;;17.30;1.00;;;;;;5033381;28;20030;-63
2023/05/15 09:10:10;;;;;;;6.57;5.40;;;17.40;1.00;;;;;;5029328;28;20111;-67
2023/05/15 09:12:39;;;;;;;6.03;5.00;;;17.30;1.00;;;;;;5043923;28;20029;-68
2023/05/15 09:15:16;;;;;;;5.50;5.00;;;17.30;1.00;;;;;;5034879;28;20021;-62
2023/05/15 09:17:43;;;;;;;5.45;4.95;;;17.30;1.00;;;;;;5033300;28;20128;-61
2023/05/15 09:20:25;;;;;;;5.78;5.28;;;17.30;1.00;;;;;;5033934;28;20116;-61
2023/05/15 09:22:51;;;;;;;5.80;4.50;;;17.40;1.00;;;;;;5034617;28;20079;-61
2023/05/15 09:25:37;;;;;;;5.05;4.57;;;17.40;1.00;;;;;;5038600;28;20033;-61
2023/05/15 09:28:03;;;;;;;5.55;4.53;;;17.50;1.00;;;;;;5033076;28;20030;-57
2023/05/15 09:30:30;;;;;;;15.25;6.80;;;17.60;1.00;;;;;;5045176;28;20117;-58
2023/05/15 09:33:00;;;;;;;12.05;6.15;;;17.60;1.00;;;;;;5039944;28;20071;-70
2023/05/15 09:35:39;;;;;;;8.70;6.20;;;17.70;1.00;;;;;;5031471;28;20025;-69
2023/05/15 09:38:10;;;;;;;6.88;5.63;;;17.70;1.00;;;;;;5034317;28;20530;-68
2023/05/15 09:40:36;;;;;;;6.35;5.72;;;17.90;1.00;;;;;;5038345;28;20437;-69
2023/05/15 09:43:02;;;;;;;6.75;5.40;;;17.90;1.00;;;;;;5047018;28;20041;-62
2023/05/15 09:45:29;;;;;;;5.93;5.43;;;18.00;1.00;;;;;;5045013;28;20017;-69
2023/05/15 09:47:59;;;;;;;6.38;5.78;;;18.10;1.00;;;;;;5047261;28;20421;-66
2023/05/15 09:50:34;;;;;;;9.13;6.05;;;18.10;1.00;;;;;;5036838;28;20029;-70
2023/05/15 09:53:00;;;;;;;6.85;5.68;;;18.30;1.00;;;;;;5041987;28;20025;-63
2023/05/15 09:55:29;;;;;;;10.55;6.38;;;18.30;1.00;;;;;;5040520;28;20032;-63
2023/05/15 09:58:15;;;;;;;7.03;5.38;;;18.30;1.00;;;;;;5044515;28;20070;-68
2023/05/15 10:00:42;;;;;;;8.30;5.13;;;18.30;1.00;;;;;;5042873;28;20163;-62
2023/05/15 10:03:08;;;;;;;6.30;5.13;;;18.30;1.00;;;;;;5044777;28;20467;-70
2023/05/15 10:05:35;;;;;;;6.20;5.43;;;18.30;1.00;;;;;;5046712;28;20501;-63
2023/05/15 10:08:01;;;;;;;6.25;5.28;;;18.40;1.00;;;;;;5050377;28;20021;-71
2023/05/15 10:10:28;;;;;;;6.20;5.60;;;18.40;1.00;;;;;;5046293;28;20072;-71
2023/05/15 10:12:57;;;;;;;5.90;5.28;;;18.50;1.00;;;;;;5050568;28;20032;-70
2023/05/15 10:15:23;;;;;;;18.52;8.68;;;18.50;1.00;;;;;;5044780;28;20041;-71
2023/05/15 10:17:50;;;;;;;6.25;5.65;;;18.60;1.00;;;;;;5042584;28;20471;-66
2023/05/15 10:20:19;;;;;;;6.07;5.25;;;18.70;1.00;;;;;;5045533;28;20053;-66
2023/05/15 10:22:47;;;;;;;7.03;6.45;;;18.70;1.00;;;;;;5044050;28;20352;-65
2023/05/15 10:25:36;;;;;;;7.40;6.10;;;18.80;1.00;;;;;;5044509;28;20025;-65
2023/05/15 10:28:02;;;;;;;6.00;5.47;;;18.90;1.00;;;;;;5061142;28;20076;-66
2023/05/15 10:30:30;;;;;;;6.30;5.70;;;18.90;1.00;;;;;;5046737;28;20072;-66
2023/05/15 10:32:57;;;;;;;7.00;6.30;;;19.00;1.00;;;;;;5045349;28;20353;-66
2023/05/15 10:35:23;;;;;;;6.95;6.18;;;19.00;1.00;;;;;;5045886;28;20416;-66
2023/05/15 10:37:49;;;;;;;6.53;5.25;;;19.10;1.00;;;;;;5043648;28;20013;-66
2023/05/15 10:40:16;;;;;;;8.95;6.50;;;19.20;1.00;;;;;;5042397;28;20601;-66
2023/05/15 10:42:43;;;;;;;9.27;7.20;;;19.20;1.00;;;;;;5045717;28;20444;-66
2023/05/15 10:45:09;;;;;;;6.18;5.63;;;19.30;1.00;;;;;;5040177;28;20025;-66
2023/05/15 10:47:37;;;;;;;6.90;6.30;;;19.30;1.00;;;;;;5044257;28;20018;-66
2023/05/15 10:50:04;;;;;;;7.93;7.32;;;19.40;1.00;;;;;;5047905;28;20032;-65
2023/05/15 10:52:32;;;;;;;7.35;6.60;;;19.40;1.00;;;;;;5037007;28;20109;-65
2023/05/15 10:54:58;;;;;;;8.30;7.43;;;19.40;1.00;;;;;;5045938;28;20064;-66
2023/05/15 10:57:24;;;;;;;37.92;12.65;;;19.50;1.00;;;;;;5040497;28;20024;-66
2023/05/15 10:59:50;;;;;;;11.48;7.22;;;19.70;1.00;;;;;;5029723;28;20383;-65
2023/05/15 11:02:22;;;;;;;7.90;6.38;;;19.80;1.00;;;;;;5035141;28;20028;-65
2023/05/15 11:04:57;;;;;;;6.47;5.97;;;19.90;1.00;;;;;;5033145;28;20511;-66
2023/05/15 11:07:24;;;;;;;8.68;7.93;;;20.00;1.00;;;;;;5037007;28;20028;-66
2023/05/15 11:09:51;;;;;;;7.82;6.60;;;20.10;1.00;;;;;;5037896;28;20030;-66
2023/05/15 11:12:17;;;;;;;7.60;6.75;;;20.10;1.00;;;;;;5030087;28;20033;-66
2023/05/15 11:14:53;;;;;;;7.07;6.40;;;20.30;1.00;;;;;;5039854;28;20430;-66
2023/05/15 11:17:18;;;;;;;5.68;5.15;;;20.50;1.00;;;;;;5033486;28;20028;-66
2023/05/15 11:19:50;;;;;;;5.90;5.50;;;20.70;1.00;;;;;;5038718;28;20468;-66
2023/05/15 11:22:17;;;;;;;7.28;6.65;;;20.80;1.00;;;;;;5047026;28;20105;-66
2023/05/15 11:24:49;;;;;;;10.10;7.35;;;20.90;1.00;;;;;;5047424;28;20171;-66
2023/05/15 11:27:23;;;;;;;7.20;6.55;;;21.00;1.00;;;;;;5042161;28;20021;-65
2023/05/15 11:30:09;;;;;;;7.00;6.20;;;21.20;1.00;;;;;;5033700;28;20090;-66
2023/05/15 11:32:42;;;;;;;6.47;5.88;;;21.50;1.00;;;;;;5047591;28;20036;-66
2023/05/15 11:35:29;;;;;;;7.05;5.55;;;21.80;1.00;;;;;;5049667;28;20543;-66
2023/05/15 11:37:56;;;;;;;9.57;6.57;;;22.20;1.00;;;;;;5049299;28;20045;-66
2023/05/15 11:40:23;;;;;;;6.15;5.68;;;22.50;1.00;;;;;;5050722;28;20025;-66
2023/05/15 11:43:21;;;;;;;6.88;4.65;;;23.00;1.00;;;;;;5053185;28;20103;-66
2023/05/15 11:45:54;;;;;;;4.57;4.13;;;23.60;1.00;;;;;;5047579;28;20700;-67
2023/05/15 11:48:21;;;;;;;5.10;4.70;;;24.10;1.00;;;;;;5052229;28;20035;-67
2023/05/15 11:50:48;;;;;;;7.65;6.95;;;24.50;1.00;;;;;;5050144;28;20042;-67
2023/05/15 11:53:15;;;;;;;6.07;5.65;;;24.80;1.00;;;;;;5052900;28;20035;-66
2023/05/15 11:55:42;;;;;;;7.05;6.38;;;25.00;1.00;;;;;;5050251;28;20022;-66
2023/05/15 11:58:16;;;;;;;6.57;6.07;;;25.30;1.00;;;;;;5048007;28;20032;-66
2023/05/15 12:00:42;;;;;;;;;;;25.60;1.00;;;;;;5047503;28;20064;-66
2023/05/15 12:03:18;;;;;;;7.13;6.43;;;25.80;1.00;;;;;;5049989;28;20310;-66
2023/05/15 12:05:44;;;;;;;5.97;5.18;;;26.40;1.00;;;;;;5051722;28;20020;-66
2023/05/15 12:08:11;;;;;;;5.05;4.65;;;27.60;1.00;;;;;;5049643;28;20113;-66
2023/05/15 12:10:41;;;;;;;6.18;5.57;;;28.40;99.90;;;;;;5039489;28;20633;-67
2023/05/15 12:13:07;;;;;;;5.25;4.47;;;28.40;99.90;;;;;;5042962;28;20025;-67
2023/05/15 12:15:40;;;;;;;5.78;5.00;;;28.80;99.90;;;;;;5036922;28;20044;-67
2023/05/15 12:18:07;;;;;;;5.07;4.70;;;29.30;99.90;;;;;;5051620;28;20021;-67
2023/05/15 12:20:34;;;;;;;6.18;5.63;;;29.80;99.90;;;;;;5044209;28;20074;-67
2023/05/15 12:23:02;;;;;;;5.85;5.35;;;30.50;99.90;;;;;;5050062;28;20025;-67
2023/05/15 12:25:29;;;;;;;6.10;5.38;;;31.90;99.90;;;;;;5038778;28;20037;-67
2023/05/15 12:27:55;;;;;;;5.88;5.38;;;33.90;99.90;;;;;;5044047;28;20033;-66
2023/05/15 12:30:21;;;;;;;8.93;5.88;;;36.30;99.90;;;;;;5051674;28;20514;-61
2023/05/15 12:32:47;;;;;;;5.65;5.15;;;36.30;99.90;;;;;;5045064;28;20529;-59
2023/05/15 12:35:14;;;;;;;4.68;4.22;;;34.30;99.90;;;;;;5035130;28;20084;-60
2023/05/15 12:37:41;;;;;;;5.47;4.97;;;32.30;99.90;;;;;;5033175;28;20075;-60
2023/05/15 12:40:10;;;;;;;6.03;4.03;;;31.10;99.90;;;;;;5035459;28;20036;-61
2023/05/15 12:42:44;;;;;;;6.53;5.85;;;30.90;99.90;;;;;;5033591;28;20502;-70
2023/05/15 12:45:13;;;;;;;5.15;4.75;;;31.00;99.90;;;;;;5046268;28;20044;-69
2023/05/15 12:47:39;;;;;;;6.95;4.60;;;30.80;99.90;;;;;;5043601;28;20353;-63
2023/05/15 12:50:21;;;;;;;4.95;4.55;;;30.70;99.90;;;;;;5044444;28;20033;-66
2023/05/15 12:52:50;;;;;;;6.03;5.32;;;30.70;99.90;;;;;;5044329;28;20086;-67
2023/05/15 12:55:27;;;;;;;5.15;4.70;;;31.10;99.90;;;;;;5044173;28;20025;-61
2023/05/15 12:57:56;;;;;;;5.00;3.95;;;30.40;99.90;;;;;;5045259;28;20025;-68
2023/05/15 13:00:22;;;;;;;6.28;3.47;;;30.00;99.90;;;;;;5049626;28;20025;-68